createdAt,value
2017-09-11T12:10:43.224Z,1009.94
2017-09-11T12:11:43.225Z,1009.91
2017-09-11T12:12:43.226Z,1009.79
2017-09-11T12:13:43.229Z,1009.7
2017-09-11T12:14:43.233Z,1009.68
2017-09-11T12:15:43.233Z,1009.61
2017-09-11T12:16:43.237Z,1009.59
2017-09-11T12:17:43.235Z,1009.61
2017-09-11T12:18:43.237Z,1009.52
2017-09-11T12:19:43.243Z,1009.52
2017-09-11T12:20:43.245Z,1009.48
2017-09-11T12:21:43.243Z,1009.43
2017-09-11T12:22:43.248Z,1009.38
2017-09-11T12:23:43.252Z,1009.43
2017-09-11T12:24:43.250Z,1009.49
2017-09-11T12:25:43.257Z,1009.52
2017-09-11T12:26:43.257Z,1009.62
2017-09-11T12:27:43.259Z,1009.66
2017-09-11T12:28:43.263Z,1009.75
2017-09-11T12:29:43.267Z,1009.81
2017-09-11T12:30:43.269Z,1009.93
2017-09-11T12:31:43.269Z,1009.89
2017-09-11T12:32:43.275Z,1009.84
2017-09-11T12:33:43.282Z,1009.84
2017-09-11T12:34:43.278Z,1009.73
2017-09-11T12:35:43.283Z,1009.75
2017-09-11T12:36:43.282Z,1009.8
2017-09-11T12:37:43.286Z,1009.76
2017-09-11T12:38:43.292Z,1009.72
2017-09-11T12:39:43.290Z,1009.72
2017-09-11T12:40:43.293Z,1009.64
2017-09-11T12:41:43.302Z,1009.66
2017-09-11T12:42:43.300Z,1009.7
2017-09-11T12:43:43.301Z,1009.75
2017-09-11T12:44:43.307Z,1009.78
2017-09-11T12:45:43.310Z,1009.85
2017-09-11T12:46:43.309Z,1009.95
2017-09-11T12:47:43.314Z,1009.97
2017-09-11T12:48:43.316Z,1010.01
2017-09-11T12:49:43.317Z,1010
2017-09-11T12:50:43.319Z,1009.84
2017-09-11T12:51:43.323Z,1009.75
2017-09-11T12:52:43.326Z,1009.68
2017-09-11T12:53:43.325Z,1009.66
2017-09-11T12:54:43.332Z,1009.63
2017-09-11T12:55:43.332Z,1009.61
2017-09-11T12:56:43.333Z,1009.67
2017-09-11T12:57:43.338Z,1009.72
2017-09-11T12:58:43.341Z,1009.67
2017-09-11T12:59:43.345Z,1009.74
2017-09-11T13:00:43.347Z,1009.79
2017-09-11T13:01:43.347Z,1009.8
2017-09-11T13:02:43.350Z,1009.78
2017-09-11T13:03:43.352Z,1009.77
2017-09-11T13:04:43.356Z,1009.81
2017-09-11T13:05:43.359Z,1009.81
2017-09-11T13:06:43.363Z,1009.83
2017-09-11T13:07:43.364Z,1009.74
2017-09-11T13:08:43.364Z,1009.72
2017-09-11T13:09:43.366Z,1009.7
2017-09-11T13:10:43.370Z,1009.66
2017-09-11T13:11:43.376Z,1009.66
2017-09-11T13:12:43.378Z,1009.64
2017-09-11T13:13:43.376Z,1009.65
2017-09-11T13:14:43.383Z,1009.71
2017-09-11T13:15:43.385Z,1009.71
2017-09-11T13:16:43.386Z,1009.84
2017-09-11T13:17:43.390Z,1009.89
2017-09-11T13:18:43.394Z,1010.02
2017-09-11T13:19:43.392Z,1010.03
2017-09-11T13:20:43.395Z,1010.11
2017-09-11T13:21:43.400Z,1010.24
2017-09-11T13:22:43.439Z,1010.29
2017-09-11T13:23:43.405Z,1010.32
2017-09-11T13:24:43.403Z,1010.39
2017-09-11T13:25:43.410Z,1010.48
2017-09-11T13:26:43.408Z,1010.56
2017-09-11T13:27:43.412Z,1010.52
2017-09-11T13:28:43.413Z,1010.58
2017-09-11T13:29:43.415Z,1010.59
2017-09-11T13:30:43.416Z,1010.57
2017-09-11T13:31:43.421Z,1010.51
2017-09-11T13:32:43.422Z,1010.43
2017-09-11T13:33:43.424Z,1010.48
2017-09-11T13:34:43.426Z,1010.5
2017-09-11T13:35:43.427Z,1010.43
2017-09-11T13:36:43.427Z,1010.49
2017-09-11T13:37:43.428Z,1010.52
2017-09-11T13:38:43.430Z,1010.43
2017-09-11T13:39:43.434Z,1010.44
2017-09-11T13:40:43.434Z,1010.37
2017-09-11T13:41:43.433Z,1010.42
2017-09-11T13:42:43.440Z,1010.42
2017-09-11T13:43:43.440Z,1010.46
2017-09-11T13:44:43.443Z,1010.47
2017-09-11T13:45:43.445Z,1010.47
2017-09-11T13:46:43.444Z,1010.53
2017-09-11T13:47:43.445Z,1010.48
2017-09-11T13:48:43.445Z,1010.44
2017-09-11T13:49:43.450Z,1010.46
2017-09-11T13:50:43.478Z,1010.41
2017-09-11T13:51:43.454Z,1010.34
2017-09-11T13:52:43.455Z,1010.28
2017-09-11T13:53:43.455Z,1010.25
2017-09-11T13:54:43.456Z,1010.15
2017-09-11T13:55:43.460Z,1010.17
2017-09-11T13:56:43.459Z,1010.16
2017-09-11T13:57:43.463Z,1010.19
2017-09-11T13:58:43.463Z,1010.16
2017-09-11T13:59:43.465Z,1010.2
2017-09-11T14:00:43.465Z,1010.16
2017-09-11T14:01:43.467Z,1010.17
2017-09-11T14:02:43.469Z,1010.19
2017-09-11T14:03:43.471Z,1010.28
2017-09-11T14:04:43.472Z,1010.31
2017-09-11T14:05:43.476Z,1010.43
2017-09-11T14:06:43.474Z,1010.45
2017-09-11T14:07:43.480Z,1010.46
2017-09-11T14:08:43.476Z,1010.46
2017-09-11T14:09:43.479Z,1010.49
2017-09-11T14:10:43.478Z,1010.44
2017-09-11T14:11:43.484Z,1010.38
2017-09-11T14:12:43.486Z,1010.51
2017-09-11T14:13:43.484Z,1010.54
2017-09-11T14:14:43.485Z,1010.55
2017-09-11T14:15:43.485Z,1010.54
2017-09-11T14:16:43.487Z,1010.54
2017-09-11T14:17:43.491Z,1010.54
2017-09-11T14:18:43.493Z,1010.49
2017-09-11T14:19:43.490Z,1010.51
2017-09-11T14:20:43.495Z,1010.51
2017-09-11T14:21:43.492Z,1010.53
2017-09-11T14:22:43.498Z,1010.45
2017-09-11T14:23:43.500Z,1010.42
2017-09-11T14:24:43.499Z,1010.43
2017-09-11T14:25:43.500Z,1010.44
2017-09-11T14:26:43.502Z,1010.4
2017-09-11T14:27:43.500Z,1010.41
2017-09-11T14:28:43.499Z,1010.39
2017-09-11T14:29:43.537Z,1010.4
2017-09-11T14:30:43.506Z,1010.39
2017-09-11T14:31:43.507Z,1010.4
2017-09-11T14:32:43.507Z,1010.4
2017-09-11T14:33:43.506Z,1010.47
2017-09-11T14:34:43.511Z,1010.43
2017-09-11T14:35:43.509Z,1010.41
2017-09-11T14:36:43.509Z,1010.51
2017-09-11T14:37:43.512Z,1010.56
2017-09-11T14:38:43.515Z,1010.59
2017-09-11T14:39:43.515Z,1010.59
2017-09-11T14:40:43.513Z,1010.61
2017-09-11T14:41:43.518Z,1010.67
2017-09-11T14:42:43.522Z,1010.63
2017-09-11T14:43:43.515Z,1010.62
2017-09-11T14:44:43.516Z,1010.67
2017-09-11T14:45:43.519Z,1010.64
2017-09-11T14:46:43.520Z,1010.69
2017-09-11T14:47:43.523Z,1010.68
2017-09-11T14:48:43.523Z,1010.7
2017-09-11T14:49:43.521Z,1010.76
2017-09-11T14:50:43.523Z,1010.8
2017-09-11T14:51:43.523Z,1010.85
2017-09-11T14:52:43.526Z,1010.8
2017-09-11T14:53:43.525Z,1010.85
2017-09-11T14:54:43.524Z,1010.88
2017-09-11T14:55:43.525Z,1010.89
2017-09-11T14:56:43.526Z,1010.93
2017-09-11T14:57:43.527Z,1010.95
2017-09-11T14:58:43.526Z,1010.92
2017-09-11T14:59:43.529Z,1010.88
2017-09-11T15:00:43.530Z,1010.93
2017-09-11T15:01:43.528Z,1010.91
2017-09-11T15:02:43.531Z,1010.95
2017-09-11T15:03:43.532Z,1010.95
2017-09-11T15:04:43.531Z,1010.98
2017-09-11T15:05:43.531Z,1011.06
2017-09-11T15:06:43.529Z,1011.09
2017-09-11T15:07:43.530Z,1011.09
2017-09-11T15:08:43.535Z,1011.15
2017-09-11T15:09:43.532Z,1011.22
2017-09-11T15:10:43.533Z,1011.22
2017-09-11T15:11:43.530Z,1011.3
2017-09-11T15:12:43.529Z,1011.31
2017-09-11T15:13:43.535Z,1011.37
2017-09-11T15:14:43.531Z,1011.4
2017-09-11T15:15:43.533Z,1011.53
2017-09-11T15:16:43.534Z,1011.57
2017-09-11T15:17:43.535Z,1011.58
2017-09-11T15:18:43.534Z,1011.59
2017-09-11T15:19:43.533Z,1011.61
2017-09-11T15:20:43.530Z,1011.63
2017-09-11T15:21:43.532Z,1011.66
2017-09-11T15:22:43.533Z,1011.63
2017-09-11T15:23:43.534Z,1011.6
2017-09-11T15:24:43.529Z,1011.55
2017-09-11T15:25:43.529Z,1011.55
2017-09-11T15:26:43.530Z,1011.52
2017-09-11T15:27:43.528Z,1011.49
2017-09-11T15:28:43.533Z,1011.41
2017-09-11T15:29:43.527Z,1011.41
2017-09-11T15:30:43.526Z,1011.37
2017-09-11T15:31:43.529Z,1011.37
2017-09-11T15:32:43.529Z,1011.38
2017-09-11T15:33:43.526Z,1011.37
2017-09-11T15:34:43.525Z,1011.38
2017-09-11T15:35:43.530Z,1011.47
2017-09-11T15:36:43.523Z,1011.48
2017-09-11T15:37:43.528Z,1011.46
2017-09-11T15:38:43.522Z,1011.51
2017-09-11T15:39:43.526Z,1011.55
2017-09-11T15:40:43.526Z,1011.63
2017-09-11T15:41:43.526Z,1011.65
2017-09-11T15:42:43.522Z,1011.7
2017-09-11T15:43:43.523Z,1011.78
2017-09-11T15:44:43.524Z,1011.74
2017-09-11T15:45:43.523Z,1011.78
2017-09-11T15:46:43.520Z,1011.8
2017-09-11T15:47:43.520Z,1011.9
2017-09-11T15:48:43.522Z,1011.91
2017-09-11T15:49:43.519Z,1011.93
2017-09-11T15:50:43.521Z,1012.03
2017-09-11T15:51:43.521Z,1012.05
2017-09-11T15:52:43.516Z,1012.06
2017-09-11T15:53:43.518Z,1012.03
2017-09-11T15:54:43.517Z,1012.02
2017-09-11T15:55:43.518Z,1012.1
2017-09-11T15:56:43.517Z,1012.05
2017-09-11T15:57:43.521Z,1012.11
2017-09-11T15:58:43.516Z,1012.1
2017-09-11T15:59:43.512Z,1012.09
2017-09-11T16:00:43.509Z,1012.12
2017-09-11T16:01:43.509Z,1012.07
2017-09-11T16:02:43.512Z,1012.11
2017-09-11T16:03:43.510Z,1012.15
2017-09-11T16:04:43.507Z,1012.17
2017-09-11T16:05:43.506Z,1012.15
2017-09-11T16:06:43.505Z,1012.14
2017-09-11T16:07:43.507Z,1012.1
2017-09-11T16:08:43.506Z,1012.11
2017-09-11T16:09:43.507Z,1012.11
2017-09-11T16:10:43.504Z,1012.02
2017-09-11T16:11:43.500Z,1012.04
2017-09-11T16:12:43.500Z,1012.11
2017-09-11T16:13:43.499Z,1012.16
2017-09-11T16:14:43.501Z,1012.13
2017-09-11T16:15:43.497Z,1012.17
2017-09-11T16:16:43.496Z,1012.18
2017-09-11T16:17:43.495Z,1012.22
2017-09-11T16:18:43.495Z,1012.27
2017-09-11T16:19:43.496Z,1012.26
2017-09-11T16:20:43.494Z,1012.27
2017-09-11T16:21:43.494Z,1012.27
2017-09-11T16:22:43.488Z,1012.27
2017-09-11T16:23:43.488Z,1012.3
2017-09-11T16:24:43.488Z,1012.29
2017-09-11T16:25:43.485Z,1012.31
2017-09-11T16:26:43.488Z,1012.37
2017-09-11T16:27:43.485Z,1012.44
2017-09-11T16:28:43.485Z,1012.43
2017-09-11T16:29:43.481Z,1012.45
2017-09-11T16:30:43.480Z,1012.46
2017-09-11T16:31:43.479Z,1012.48
2017-09-11T16:32:43.478Z,1012.51
2017-09-11T16:33:43.476Z,1012.5
2017-09-11T16:34:43.478Z,1012.5
2017-09-11T16:35:43.478Z,1012.52
2017-09-11T16:36:43.472Z,1012.53
2017-09-11T16:37:43.470Z,1012.59
2017-09-11T16:38:43.469Z,1012.63
2017-09-11T16:39:43.469Z,1012.65
2017-09-11T16:40:43.470Z,1012.69
2017-09-11T16:41:43.464Z,1012.76
2017-09-11T16:42:43.466Z,1012.82
2017-09-11T16:43:43.464Z,1012.86
2017-09-11T16:44:43.462Z,1013
2017-09-11T16:45:43.460Z,1013.07
2017-09-11T16:46:43.457Z,1013.17
2017-09-11T16:47:43.456Z,1013.23
2017-09-11T16:48:43.455Z,1013.33
2017-09-11T16:49:43.449Z,1013.35
2017-09-11T16:50:43.448Z,1013.38
2017-09-11T16:51:43.448Z,1013.42
2017-09-11T16:52:43.443Z,1013.42
2017-09-11T16:53:43.443Z,1013.44
2017-09-11T16:54:43.439Z,1013.44
2017-09-11T16:55:43.438Z,1013.49
2017-09-11T16:56:43.440Z,1013.54
2017-09-11T16:57:43.433Z,1013.58
2017-09-11T16:58:43.432Z,1013.6
2017-09-11T16:59:43.431Z,1013.67
2017-09-11T17:00:43.425Z,1013.74
2017-09-11T17:01:43.422Z,1013.77
2017-09-11T17:02:43.419Z,1013.83
2017-09-11T17:03:43.417Z,1013.86
2017-09-11T17:04:43.417Z,1013.91
2017-09-11T17:05:43.415Z,1013.94
2017-09-11T17:06:43.408Z,1013.96
2017-09-11T17:07:43.408Z,1014.01
2017-09-11T17:08:43.405Z,1014.11
2017-09-11T17:09:43.400Z,1014.12
2017-09-11T17:10:43.400Z,1014.14
2017-09-11T17:11:43.397Z,1014.19
2017-09-11T17:12:43.392Z,1014.22
2017-09-11T17:13:43.386Z,1014.28
2017-09-11T17:14:43.386Z,1014.26
2017-09-11T17:15:43.381Z,1014.29
2017-09-11T17:16:43.379Z,1014.29
2017-09-11T17:17:43.376Z,1014.31
2017-09-11T17:18:43.369Z,1014.39
2017-09-11T17:19:43.370Z,1014.44
2017-09-11T17:20:43.363Z,1014.43
2017-09-11T17:21:43.359Z,1014.41
2017-09-11T17:22:43.362Z,1014.47
2017-09-11T17:23:43.352Z,1014.5
2017-09-11T17:24:43.350Z,1014.55
2017-09-11T17:25:43.348Z,1014.55
2017-09-11T17:26:43.345Z,1014.59
2017-09-11T17:27:43.341Z,1014.59
2017-09-11T17:28:43.334Z,1014.61
2017-09-11T17:29:43.330Z,1014.6
2017-09-11T17:30:43.326Z,1014.61
2017-09-11T17:31:43.322Z,1014.62
2017-09-11T17:32:43.321Z,1014.63
2017-09-11T17:33:43.314Z,1014.63
2017-09-11T17:34:43.314Z,1014.7
2017-09-11T17:35:43.309Z,1014.7
2017-09-11T17:36:43.302Z,1014.74
2017-09-11T17:37:43.298Z,1014.78
2017-09-11T17:38:43.296Z,1014.79
2017-09-11T17:39:43.288Z,1014.8
2017-09-11T17:40:43.287Z,1014.83
2017-09-11T17:41:43.284Z,1014.79
2017-09-11T17:42:43.275Z,1014.83
2017-09-11T17:43:43.272Z,1014.84
2017-09-11T17:44:43.271Z,1014.84
2017-09-11T17:45:43.264Z,1014.84
2017-09-11T17:46:43.261Z,1014.84
2017-09-11T17:47:43.258Z,1014.88
2017-09-11T17:48:43.253Z,1014.91
2017-09-11T17:49:43.247Z,1014.92
2017-09-11T17:50:43.241Z,1014.96
2017-09-11T17:51:43.241Z,1014.95
2017-09-11T17:52:43.235Z,1015.02
2017-09-11T17:53:43.228Z,1015.03
2017-09-11T17:54:43.222Z,1015.1
2017-09-11T17:55:43.222Z,1015.1
2017-09-11T17:56:43.217Z,1015.14
2017-09-11T17:57:43.210Z,1015.17
2017-09-11T17:58:43.207Z,1015.18
2017-09-11T17:59:43.204Z,1015.19
2017-09-11T18:00:43.195Z,1015.23
2017-09-11T18:01:43.191Z,1015.25
2017-09-11T18:02:43.188Z,1015.2
2017-09-11T18:03:43.183Z,1015.22
2017-09-11T18:04:43.178Z,1015.23
2017-09-11T18:05:43.175Z,1015.19
2017-09-11T18:06:43.169Z,1015.16
2017-09-11T18:07:43.166Z,1015.11
2017-09-11T18:08:43.159Z,1015.05
2017-09-11T18:09:43.156Z,1015.05
2017-09-11T18:10:43.146Z,1015.08
2017-09-11T18:11:43.145Z,1015.06
2017-09-11T18:12:43.139Z,1015.05
2017-09-11T18:13:43.135Z,1015.05
2017-09-11T18:14:43.128Z,1015.08
2017-09-11T18:15:43.122Z,1015.04
2017-09-11T18:16:43.120Z,1015
2017-09-11T18:17:43.115Z,1015.01
2017-09-11T18:18:43.114Z,1014.96
2017-09-11T18:19:43.103Z,1015
2017-09-11T18:20:43.102Z,1014.93
2017-09-11T18:21:43.096Z,1014.98
2017-09-11T18:22:43.092Z,1014.98
2017-09-11T18:23:43.088Z,1014.97
2017-09-11T18:26:43.073Z,1014.99
2017-09-11T18:27:43.069Z,1014.99
2017-09-11T18:28:43.063Z,1015.01
2017-09-11T18:29:43.056Z,1014.96
2017-09-11T18:30:43.055Z,1014.94
2017-09-11T18:31:43.046Z,1015.02
2017-09-11T18:33:43.040Z,1014.98
2017-09-11T18:34:43.037Z,1015.03
2017-09-11T18:35:43.029Z,1015.05
2017-09-11T18:36:43.027Z,1015.08
2017-09-11T18:37:43.021Z,1015.12
2017-09-11T18:38:43.013Z,1015.13
2017-09-11T18:39:43.013Z,1015.16
2017-09-11T18:40:43.004Z,1015.18
2017-09-11T18:41:42.999Z,1015.18
2017-09-11T18:42:43.000Z,1015.19
2017-09-11T18:43:42.990Z,1015.16
2017-09-11T18:44:42.983Z,1015.16
2017-09-11T18:45:42.980Z,1015.18
2017-09-11T18:46:42.976Z,1015.13
2017-09-11T18:47:42.971Z,1015.14
2017-09-11T18:48:42.965Z,1015.16
2017-09-11T18:49:42.964Z,1015.16
2017-09-11T18:50:42.955Z,1015.1
2017-09-11T18:51:42.950Z,1015.12
2017-09-11T18:52:42.949Z,1015.11
2017-09-11T18:53:42.942Z,1015.1
2017-09-11T18:54:42.940Z,1015.1
2017-09-11T18:55:42.931Z,1015.08
2017-09-11T18:56:42.929Z,1015.1
2017-09-11T18:57:42.926Z,1015.11
2017-09-11T18:58:42.918Z,1015.08
2017-09-11T18:59:42.915Z,1015.12
2017-09-11T19:00:42.908Z,1015.07
2017-09-11T19:01:42.906Z,1015.08
2017-09-11T19:02:42.901Z,1015.05
2017-09-11T19:03:42.918Z,1015.1
2017-09-11T19:04:42.888Z,1015.04
2017-09-11T19:05:42.887Z,1015.04
2017-09-11T19:06:42.885Z,1015.03
2017-09-11T19:07:42.876Z,1015.05
2017-09-11T19:08:42.868Z,1015.05
2017-09-11T19:09:42.868Z,1015.05
2017-09-11T19:10:42.861Z,1015.03
2017-09-11T19:11:42.858Z,1015.04
2017-09-11T19:12:42.850Z,1014.96
2017-09-11T19:13:42.844Z,1014.96
2017-09-11T19:14:42.843Z,1014.98
2017-09-11T19:15:42.838Z,1014.94
2017-09-11T19:16:42.832Z,1014.89
2017-09-11T19:17:42.828Z,1014.95
2017-09-11T19:18:42.822Z,1014.95
2017-09-11T19:19:42.816Z,1014.98
2017-09-11T19:20:42.815Z,1014.98
2017-09-11T19:21:42.806Z,1015.02
2017-09-11T19:22:42.805Z,1014.98
2017-09-11T19:23:42.801Z,1014.98
2017-09-11T19:24:42.795Z,1014.99
2017-09-11T19:25:42.788Z,1015.04
2017-09-11T19:26:42.784Z,1015.03
2017-09-11T19:27:42.780Z,1015.02
2017-09-11T19:28:42.774Z,1015.05
2017-09-11T19:29:42.769Z,1015.05
2017-09-11T19:30:42.764Z,1015.05
2017-09-11T19:31:42.763Z,1015.05
2017-09-11T19:32:42.758Z,1015.09
2017-09-11T19:33:42.759Z,1015.07
2017-09-11T19:34:42.748Z,1015.07
2017-09-11T19:35:42.743Z,1015.08
2017-09-11T19:36:42.739Z,1015.14
2017-09-11T19:37:42.733Z,1015.23
2017-09-11T19:38:42.727Z,1015.26
2017-09-11T19:39:42.725Z,1015.28
2017-09-11T19:40:42.717Z,1015.27
2017-09-11T19:41:42.719Z,1015.23
2017-09-11T19:42:42.707Z,1015.25
2017-09-11T19:43:42.703Z,1015.29
2017-09-11T19:44:42.699Z,1015.27
2017-09-11T19:45:42.696Z,1015.25
2017-09-11T19:46:42.692Z,1015.2
2017-09-11T19:47:42.683Z,1015.2
2017-09-11T19:48:42.681Z,1015.18
2017-09-11T19:49:42.675Z,1015.18
2017-09-11T19:50:42.673Z,1015.16
2017-09-11T19:51:42.668Z,1015.15
2017-09-11T19:52:42.661Z,1015.14
2017-09-11T19:53:42.656Z,1015.1
2017-09-11T19:54:42.662Z,1015.13
2017-09-11T19:55:42.646Z,1015.13
2017-09-11T19:56:42.646Z,1015.15
2017-09-11T19:57:42.641Z,1015.19
2017-09-11T19:58:42.632Z,1015.28
2017-09-11T19:59:42.629Z,1015.35
2017-09-11T20:00:42.621Z,1015.36
2017-09-11T20:01:42.620Z,1015.4
2017-09-11T20:02:42.614Z,1015.42
2017-09-11T20:03:42.612Z,1015.51
2017-09-11T20:04:42.611Z,1015.56
2017-09-11T20:05:42.598Z,1015.63
2017-09-11T20:06:42.598Z,1015.6
2017-09-11T20:07:42.590Z,1015.63
2017-09-11T20:08:42.584Z,1015.7
2017-09-11T20:09:42.581Z,1015.7
2017-09-11T20:10:42.577Z,1015.77
2017-09-11T20:11:42.569Z,1015.8
2017-09-11T20:12:42.564Z,1015.82
2017-09-11T20:13:42.559Z,1015.85
2017-09-11T20:14:42.556Z,1015.87
2017-09-11T20:15:42.551Z,1015.93
2017-09-11T20:16:42.547Z,1015.95
2017-09-11T20:17:42.540Z,1016.02
2017-09-11T20:18:42.535Z,1016.04
2017-09-11T20:19:42.532Z,1016.11
2017-09-11T20:20:42.526Z,1016.18
2017-09-11T20:21:42.519Z,1016.2
2017-09-11T20:22:42.521Z,1016.28
2017-09-11T20:23:42.511Z,1016.3
2017-09-11T20:24:42.503Z,1016.31
2017-09-11T20:25:42.501Z,1016.31
2017-09-11T20:26:42.493Z,1016.34
2017-09-11T20:27:42.487Z,1016.37
2017-09-11T20:28:42.482Z,1016.43
2017-09-11T20:29:42.476Z,1016.45
2017-09-11T20:30:42.472Z,1016.54
2017-09-11T20:31:42.467Z,1016.63
2017-09-11T20:32:42.459Z,1016.64
2017-09-11T20:33:42.458Z,1016.69
2017-09-11T20:34:42.452Z,1016.75
2017-09-11T20:35:42.442Z,1016.78
2017-09-11T20:36:42.437Z,1016.83
2017-09-11T20:37:42.434Z,1016.89
2017-09-11T20:38:42.429Z,1016.88
2017-09-11T20:39:42.420Z,1016.93
2017-09-11T20:40:42.417Z,1017.02
2017-09-11T20:41:42.411Z,1017
2017-09-11T20:42:42.406Z,1017.03
2017-09-11T20:43:42.396Z,1017.05
2017-09-11T20:44:42.392Z,1017.12
2017-09-11T20:45:42.388Z,1017.11
2017-09-11T20:46:42.379Z,1017.14
2017-09-11T20:47:42.375Z,1017.12
2017-09-11T20:48:42.368Z,1017.14
2017-09-11T20:49:42.361Z,1017.19
2017-09-11T20:50:42.358Z,1017.24
2017-09-11T20:51:42.353Z,1017.22
2017-09-11T20:52:42.342Z,1017.25
2017-09-11T20:53:42.340Z,1017.29
2017-09-11T20:54:42.329Z,1017.28
2017-09-11T20:55:42.327Z,1017.32
2017-09-11T20:56:42.316Z,1017.3
2017-09-11T20:57:42.314Z,1017.35
2017-09-11T20:58:42.330Z,1017.32
2017-09-11T20:59:42.298Z,1017.36
2017-09-11T21:00:42.297Z,1017.39
2017-09-11T21:01:42.287Z,1017.4
2017-09-11T21:02:42.283Z,1017.44
2017-09-11T21:03:42.274Z,1017.46
2017-09-11T21:04:42.271Z,1017.44
2017-09-11T21:05:42.265Z,1017.49
2017-09-11T21:06:42.258Z,1017.48
2017-09-11T21:07:42.252Z,1017.48
2017-09-11T21:08:42.243Z,1017.5
2017-09-11T21:09:42.240Z,1017.51
2017-09-11T21:10:42.230Z,1017.52
2017-09-11T21:11:42.224Z,1017.47
2017-09-11T21:12:42.219Z,1017.53
2017-09-11T21:13:42.210Z,1017.53
2017-09-11T21:14:42.203Z,1017.57
2017-09-11T21:15:42.198Z,1017.59
2017-09-11T21:16:42.193Z,1017.61
2017-09-11T21:17:42.185Z,1017.64
2017-09-11T21:18:42.180Z,1017.64
2017-09-11T21:19:42.172Z,1017.65
2017-09-11T21:20:42.166Z,1017.63
2017-09-11T21:21:42.159Z,1017.7
2017-09-11T21:22:42.153Z,1017.69
2017-09-11T21:23:42.146Z,1017.69
2017-09-11T21:24:42.138Z,1017.69
2017-09-11T21:25:42.131Z,1017.69
2017-09-11T21:26:42.128Z,1017.68
2017-09-11T21:27:42.119Z,1017.66
2017-09-11T21:28:42.113Z,1017.69
2017-09-11T21:29:42.108Z,1017.7
2017-09-11T21:30:42.102Z,1017.72
2017-09-11T21:31:42.091Z,1017.75
2017-09-11T21:32:42.089Z,1017.7
2017-09-11T21:33:42.078Z,1017.75
2017-09-11T21:34:42.076Z,1017.77
2017-09-11T21:35:42.071Z,1017.78
2017-09-11T21:36:42.058Z,1017.79
2017-09-11T21:37:42.052Z,1017.87
2017-09-11T21:38:42.047Z,1017.86
2017-09-11T21:39:42.042Z,1017.87
2017-09-11T21:40:42.034Z,1017.82
2017-09-11T21:41:42.029Z,1017.85
2017-09-11T21:42:42.023Z,1017.87
2017-09-11T21:43:42.016Z,1017.85
2017-09-11T21:44:42.005Z,1017.82
2017-09-11T21:45:41.999Z,1017.86
2017-09-11T21:46:41.997Z,1017.87
2017-09-11T21:47:41.985Z,1017.84
2017-09-11T21:48:41.982Z,1017.85
2017-09-11T21:49:41.975Z,1017.87
2017-09-11T21:50:41.969Z,1017.86
2017-09-11T21:51:41.958Z,1017.86
2017-09-11T21:52:41.951Z,1017.87
2017-09-11T21:53:41.947Z,1017.87
2017-09-11T21:54:41.941Z,1017.89
2017-09-11T21:55:41.931Z,1017.89
2017-09-11T21:56:41.924Z,1017.89
2017-09-11T21:57:41.919Z,1017.87
2017-09-11T21:58:41.913Z,1017.9
2017-09-11T21:59:41.903Z,1017.91
2017-09-11T22:00:41.899Z,1017.96
2017-09-11T22:01:41.892Z,1017.99
2017-09-11T22:02:41.881Z,1018
2017-09-11T22:03:41.877Z,1018
2017-09-11T22:04:41.871Z,1018.02
2017-09-11T22:05:41.860Z,1018.01
2017-09-11T22:06:41.859Z,1018.03
2017-09-11T22:07:41.852Z,1018.02
2017-09-11T22:08:41.845Z,1018.01
2017-09-11T22:09:41.837Z,1018.01
2017-09-11T22:10:41.829Z,1018.05
2017-09-11T22:11:41.820Z,1018.04
2017-09-11T22:12:41.814Z,1018.04
2017-09-11T22:13:41.809Z,1018.04
2017-09-11T22:14:41.803Z,1018.04
2017-09-11T22:15:41.795Z,1018.05
2017-09-11T22:16:41.784Z,1018.07
2017-09-11T22:17:41.779Z,1018.08
2017-09-11T22:18:41.774Z,1018.09
2017-09-11T22:19:41.768Z,1018.1
2017-09-11T22:20:41.757Z,1018.1
2017-09-11T22:21:41.750Z,1018.13
2017-09-11T22:22:41.743Z,1018.09
2017-09-11T22:23:41.739Z,1018.08
2017-09-11T22:24:41.729Z,1018.11
2017-09-11T22:25:41.725Z,1018.12
2017-09-11T22:26:41.717Z,1018.11
2017-09-11T22:27:41.710Z,1018.1
2017-09-11T22:28:41.702Z,1018.15
2017-09-11T22:29:41.695Z,1018.12
2017-09-11T22:30:41.685Z,1018.16
2017-09-11T22:31:41.679Z,1018.14
2017-09-11T22:32:41.672Z,1018.16
2017-09-11T22:33:41.667Z,1018.11
2017-09-11T22:34:41.656Z,1018.17
2017-09-11T22:35:41.653Z,1018.17
2017-09-11T22:36:41.643Z,1018.16
2017-09-11T22:37:41.635Z,1018.23
2017-09-11T22:38:41.628Z,1018.19
2017-09-11T22:39:41.621Z,1018.19
2017-09-11T22:40:41.615Z,1018.22
2017-09-11T22:41:41.611Z,1018.21
2017-09-11T22:42:41.601Z,1018.25
2017-09-11T22:43:41.595Z,1018.23
2017-09-11T22:44:41.589Z,1018.26
2017-09-11T22:45:41.580Z,1018.25
2017-09-11T22:46:41.570Z,1018.23
2017-09-11T22:47:41.565Z,1018.26
2017-09-11T22:48:41.558Z,1018.21
2017-09-11T22:49:41.551Z,1018.23
2017-09-11T22:50:41.545Z,1018.2
2017-09-11T22:51:41.538Z,1018.2
2017-09-11T22:52:41.528Z,1018.21
2017-09-11T22:53:41.521Z,1018.21
2017-09-11T22:54:41.513Z,1018.2
2017-09-11T22:55:41.507Z,1018.21
2017-09-11T22:56:41.501Z,1018.24
2017-09-11T22:57:41.494Z,1018.19
2017-09-11T22:58:41.485Z,1018.24
2017-09-11T22:59:41.477Z,1018.27
2017-09-11T23:00:41.472Z,1018.27
2017-09-11T23:01:41.461Z,1018.32
2017-09-11T23:02:41.454Z,1018.27
2017-09-11T23:03:41.449Z,1018.32
2017-09-11T23:04:41.473Z,1018.32
2017-09-11T23:05:41.435Z,1018.34
2017-09-11T23:06:41.428Z,1018.34
2017-09-11T23:07:41.418Z,1018.33
2017-09-11T23:08:41.413Z,1018.38
2017-09-11T23:09:41.402Z,1018.37
2017-09-11T23:10:41.399Z,1018.35
2017-09-11T23:11:41.391Z,1018.37
2017-09-11T23:12:41.383Z,1018.38
2017-09-11T23:13:41.375Z,1018.42
2017-09-11T23:14:41.367Z,1018.42
2017-09-11T23:15:41.362Z,1018.46
2017-09-11T23:16:41.356Z,1018.48
2017-09-11T23:17:41.345Z,1018.49
2017-09-11T23:18:41.338Z,1018.5
2017-09-11T23:19:41.330Z,1018.5
2017-09-11T23:20:41.326Z,1018.53
2017-09-11T23:21:41.317Z,1018.51
2017-09-11T23:22:41.310Z,1018.56
2017-09-11T23:23:41.304Z,1018.58
2017-09-11T23:24:41.296Z,1018.6
2017-09-11T23:25:41.285Z,1018.62
2017-09-11T23:26:41.278Z,1018.6
2017-09-11T23:27:41.271Z,1018.6
2017-09-11T23:28:41.267Z,1018.59
2017-09-11T23:29:41.255Z,1018.57
2017-09-11T23:30:41.251Z,1018.6
2017-09-11T23:31:41.247Z,1018.59
2017-09-11T23:32:41.238Z,1018.63
2017-09-11T23:33:41.229Z,1018.64
2017-09-11T23:34:41.219Z,1018.63
2017-09-11T23:35:41.211Z,1018.63
2017-09-11T23:36:41.204Z,1018.63
2017-09-11T23:37:41.196Z,1018.63
2017-09-11T23:38:41.189Z,1018.64
2017-09-11T23:39:41.185Z,1018.7
2017-09-11T23:40:41.174Z,1018.65
2017-09-11T23:41:41.167Z,1018.62
2017-09-11T23:42:41.160Z,1018.63
2017-09-11T23:43:41.152Z,1018.68
2017-09-11T23:44:41.147Z,1018.65
2017-09-11T23:45:41.139Z,1018.66
2017-09-11T23:46:41.132Z,1018.65
2017-09-11T23:47:41.123Z,1018.66
2017-09-11T23:48:41.114Z,1018.67
2017-09-11T23:49:41.107Z,1018.64
2017-09-11T23:50:41.106Z,1018.63
2017-09-11T23:51:41.094Z,1018.64
2017-09-11T23:52:41.084Z,1018.72
2017-09-11T23:53:41.079Z,1018.66
2017-09-11T23:54:41.070Z,1018.7
2017-09-11T23:55:41.069Z,1018.7
2017-09-11T23:56:41.055Z,1018.69
2017-09-11T23:57:41.046Z,1018.72
2017-09-11T23:58:41.038Z,1018.76
2017-09-11T23:59:41.031Z,1018.76
